Bronx, NY

10:16 AM EST on January 31, 2015 (GMT -0500)
Kennedy International | Change Station
CLOSE
Current Station
Airport
Location: New York JFK,
Elevation: 23 ft
Nearby Weather Stations
Active Advisory: Winter Storm Watch

Elev 23 ft 40.64 °N, 73.76 °W | Updated 25 minutes ago

Clear
Clear
17 °F
Feels Like -2 °F
N
26
Wind Variable Wind from NW
Gusts 39 mph

Today
High -- | Low -- °F
--% Chance of Precip.
Yesterday
High -- | Low -- °F
Precip. -- in
7:07 AM 5:11 PM
Waxing Gibbous, 90% visible
Pressure 30.13 in
Visibility 10.0 miles
Clouds Few 5000 ft
Windchill -2 °F
Dew Point -3 °F
Humidity 41%
Rainfall 0.00 in
Snow Depth Not available.
UV 2 out of 12
Pollen .10 out of 12
Air Quality Not available.
Flu Activity Not available.
METAR KJFK 311451Z 31023G34KT 10SM FEW050 M08/M19 A3013 RMK AO2 PK WND 33035/1421 SLP203 T10831194 53013 $

More Conditions Fewer Conditions

Pressure 30.13 in
Visibility 10.0 miles
Clouds Few 5000 ft
Windchill -2 °F
Dew Point -3 °F
Humidity 41%
Rainfall 0.00 in
Snow Depth Not available.
UV 2 out of 12
Pollen .10 out of 12
Air Quality Not available.
Flu Activity Not available.
METAR KJFK 311451Z 31023G34KT 10SM FEW050 M08/M19 A3013 RMK AO2 PK WND 33035/1421 SLP203 T10831194 53013 $

More Conditions Fewer Conditions

10-Day Weather Forecast

Almanac

Astronomy

Jan. 31, 2015 Rise Set
Actual Time
Civil Twilight
Nautical Twilight
Astronomical Twilight
Moon
Length of Visible Light
Length of Day
Tomorrow will be .
, % of the Moon is Illuminated

Today's Extremes

State Highs State Lows

Community

WunderPhotos

Upload Photos

1,792,084 photos uploaded!

WunderBlogs® & News

Nearby

Air Quality

  Air Quality AQ Index Pollutant
Not available.

Snow Depth

Station Depth Elevation

Earthquake Activity

City Distance Mag. Time & Date
Minimum magnitude displayed is 2.5.

Coastal Water Temperatures

Place Temperature

Nearby Weather Stations